Time;durP1;ratioP1;P1;durP2;ratioP2;P2;SDS_P1;SDS_P2;PMS_P1;PMS_P2;Temp;Humidity;BMP_temperature;BMP_pressure;BME280_temperature;BME280_humidity;BME280_pressure;Samples;Min_cycle;Max_cycle;Signal;HPM_P1;HPM_P2
2024/02/18 00:00:35;;;;;;;18.55;5.68;;;;;;;0.89;100.00;103316.09;5005087;28;20107;-73
2024/02/18 00:03:01;;;;;;;13.18;5.88;;;;;;;0.88;100.00;103327.59;4984268;28;20053;-72
2024/02/18 00:05:27;;;;;;;12.98;5.25;;;;;;;0.88;100.00;103319.69;5004235;28;20030;-73
2024/02/18 00:07:53;;;;;;;11.32;5.82;;;;;;;0.84;100.00;103310.41;4998940;28;20034;-74
2024/02/18 00:10:19;;;;;;;14.07;5.97;;;;;;;0.77;100.00;103303.06;5000591;28;20048;-73
2024/02/18 00:12:45;;;;;;;10.73;5.40;;;;;;;0.79;100.00;103302.91;5013071;28;20083;-73
2024/02/18 00:15:10;;;;;;;14.68;5.57;;;;;;;0.79;100.00;103306.38;5003554;28;20044;-74
2024/02/18 00:17:36;;;;;;;15.07;6.22;;;;;;;0.77;100.00;103302.25;4997989;28;20034;-74
2024/02/18 00:20:03;;;;;;;17.60;5.90;;;;;;;0.73;100.00;103299.03;5032165;28;20550;-71
2024/02/18 00:22:28;;;;;;;13.35;4.78;;;;;;;0.71;100.00;103295.72;4992341;28;20069;-74
2024/02/18 00:24:55;;;;;;;18.17;5.80;;;;;;;0.71;100.00;103279.91;5015205;28;20124;-74
2024/02/18 00:27:21;;;;;;;12.50;5.47;;;;;;;0.73;100.00;103285.03;5014368;28;20037;-72
2024/02/18 00:29:46;;;;;;;18.30;5.90;;;;;;;0.70;100.00;103278.22;4981008;28;20025;-73
2024/02/18 00:32:12;;;;;;;12.50;6.00;;;;;;;0.69;100.00;103273.94;5015012;28;20044;-73
2024/02/18 00:34:38;;;;;;;12.40;5.75;;;;;;;0.69;100.00;103279.22;5010136;28;20045;-72
2024/02/18 00:37:03;;;;;;;13.32;6.50;;;;;;;0.66;100.00;103266.28;5014176;28;20026;-73
2024/02/18 00:39:29;;;;;;;12.98;5.35;;;;;;;0.65;100.00;103271.72;5012415;28;20041;-73
2024/02/18 00:41:54;;;;;;;14.02;5.00;;;;;;;0.62;100.00;103275.47;4989198;28;20043;-72
2024/02/18 00:44:23;;;;;;;18.10;5.97;;;;;;;0.63;100.00;103269.22;5012175;28;20037;-72
2024/02/18 00:46:52;;;;;;;11.85;4.72;;;;;;;0.66;100.00;103270.75;5004381;28;20698;-73
2024/02/18 00:49:19;;;;;;;14.27;5.35;;;;;;;0.70;100.00;103270.31;5015177;28;20075;-73
2024/02/18 00:51:44;;;;;;;14.40;5.03;;;;;;;0.75;100.00;103257.53;5013786;28;20041;-73
2024/02/18 00:54:10;;;;;;;12.82;4.80;;;;;;;0.78;100.00;103262.53;4985017;28;20045;-73
2024/02/18 00:56:36;;;;;;;13.27;4.35;;;;;;;0.82;100.00;103250.72;5015639;28;20048;-72
2024/02/18 00:59:01;;;;;;;14.60;4.60;;;;;;;0.87;100.00;103254.72;4998034;28;20494;-74
2024/02/18 01:01:28;;;;;;;13.82;5.10;;;;;;;0.90;100.00;103257.09;5017384;28;20041;-73
2024/02/18 01:03:53;;;;;;;17.00;4.60;;;;;;;0.94;100.00;103255.81;4995126;28;20119;-72
2024/02/18 01:06:19;;;;;;;12.55;4.75;;;;;;;0.96;100.00;103253.88;5018012;28;20037;-73
2024/02/18 01:08:45;;;;;;;10.68;4.30;;;;;;;0.99;100.00;103238.56;5014505;28;20593;-73
2024/02/18 01:11:11;;;;;;;19.27;5.25;;;;;;;1.01;100.00;103241.06;5013565;28;20406;-73
2024/02/18 01:13:37;;;;;;;10.05;4.22;;;;;;;1.04;100.00;103248.69;4992268;28;20045;-72
2024/02/18 01:16:03;;;;;;;13.73;4.80;;;;;;;1.04;100.00;103240.78;5043127;28;20069;-72
2024/02/18 01:18:29;;;;;;;17.42;5.30;;;;;;;1.09;100.00;103241.19;5008727;28;20036;-73
2024/02/18 01:20:54;;;;;;;12.10;4.68;;;;;;;1.12;100.00;103229.50;4999696;28;20037;-73
2024/02/18 01:23:20;;;;;;;19.33;5.65;;;;;;;1.14;100.00;103236.28;5006462;28;20065;-72
2024/02/18 01:25:45;;;;;;;17.75;5.32;;;;;;;1.15;100.00;103237.94;5007313;28;20691;-72
2024/02/18 01:28:11;;;;;;;15.18;5.03;;;;;;;1.17;100.00;103238.63;4982763;28;20068;-73
2024/02/18 01:30:37;;;;;;;13.52;4.82;;;;;;;1.19;100.00;103228.75;5008342;28;20045;-73
2024/02/18 01:33:03;;;;;;;16.40;4.53;;;;;;;1.22;100.00;103223.19;5009569;28;20033;-74
2024/02/18 01:35:29;;;;;;;11.20;4.88;;;;;;;1.28;100.00;103227.88;4981496;28;20049;-72
2024/02/18 01:37:54;;;;;;;14.77;4.75;;;;;;;1.31;100.00;103217.03;4998572;28;20780;-74
2024/02/18 01:40:20;;;;;;;13.65;5.28;;;;;;;1.34;100.00;103216.72;4994961;28;20041;-73
2024/02/18 01:42:45;;;;;;;20.40;5.50;;;;;;;1.38;100.00;103216.44;4997443;28;20069;-74
2024/02/18 01:45:12;;;;;;;16.52;5.35;;;;;;;1.42;100.00;103212.50;5011373;28;20030;-72
2024/02/18 01:47:40;;;;;;;13.38;5.40;;;;;;;1.42;100.00;103202.75;5000985;28;20137;-73
2024/02/18 01:50:10;;;;;;;13.68;4.70;;;;;;;1.44;100.00;103194.72;5019482;28;20037;-73
2024/02/18 01:52:37;;;;;;;16.10;4.88;;;;;;;1.46;100.00;103183.00;5014553;28;20030;-73
2024/02/18 01:55:05;;;;;;;14.95;4.90;;;;;;;1.46;100.00;103180.38;4993240;28;20538;-72
2024/02/18 01:57:31;;;;;;;13.30;4.80;;;;;;;1.43;100.00;103177.22;5000620;28;20056;-72
2024/02/18 01:59:59;;;;;;;14.80;4.78;;;;;;;1.41;100.00;103163.31;4995925;28;20371;-72
2024/02/18 02:02:26;;;;;;;13.43;5.18;;;;;;;1.42;100.00;103184.28;5010664;28;20045;-72
2024/02/18 02:04:52;;;;;;;16.42;4.72;;;;;;;1.46;100.00;103193.59;5016479;28;20037;-72
2024/02/18 02:07:21;;;;;;;14.60;4.80;;;;;;;1.46;100.00;103187.47;5001301;28;20038;-73
2024/02/18 02:09:47;;;;;;;17.20;5.07;;;;;;;1.48;100.00;103177.56;4996596;28;20084;-73
2024/02/18 02:12:13;;;;;;;16.95;4.57;;;;;;;1.47;100.00;103173.28;4982656;28;20465;-73
2024/02/18 02:14:38;;;;;;;14.07;4.60;;;;;;;1.48;100.00;103172.28;5013484;28;20053;-76
2024/02/18 02:17:05;;;;;;;16.20;4.38;;;;;;;1.45;100.00;103160.22;5018185;28;20626;-73
2024/02/18 02:19:31;;;;;;;13.60;4.38;;;;;;;1.48;100.00;103174.94;4995383;28;20037;-73
2024/02/18 02:21:56;;;;;;;17.25;4.60;;;;;;;1.48;100.00;103174.94;5000264;28;20441;-72
2024/02/18 02:24:22;;;;;;;16.75;4.97;;;;;;;1.47;100.00;103162.72;5012105;28;20048;-75
2024/02/18 02:26:52;;;;;;;14.55;4.22;;;;;;;1.46;100.00;103161.06;5030152;28;20037;-73
2024/02/18 02:29:18;;;;;;;18.83;4.30;;;;;;;1.48;100.00;103159.91;5011419;28;20136;-73
2024/02/18 02:31:46;;;;;;;11.27;4.30;;;;;;;1.49;100.00;103148.41;4998649;28;20049;-72
2024/02/18 02:34:13;;;;;;;13.45;3.35;;;;;;;1.53;100.00;103148.91;5008449;28;20030;-73
2024/02/18 02:36:39;;;;;;;13.23;4.63;;;;;;;1.57;100.00;103160.84;5019339;28;20034;-72
2024/02/18 02:39:07;;;;;;;11.85;4.13;;;;;;;1.58;100.00;103159.88;5026731;28;20025;-73
2024/02/18 02:41:34;;;;;;;9.73;3.92;;;;;;;1.60;100.00;103153.44;5015556;28;20452;-73
2024/02/18 02:44:00;;;;;;;;;;;;;;;1.57;100.00;103145.00;4996890;28;20029;-73
2024/02/18 02:46:25;;;;;;;17.05;3.75;;;;;;;1.59;100.00;103148.31;5010765;28;19971;-73
2024/02/18 02:48:51;;;;;;;11.80;3.53;;;;;;;1.58;100.00;103134.28;5017232;28;20029;-73
2024/02/18 02:51:19;;;;;;;9.48;3.60;;;;;;;1.59;100.00;103135.09;5011203;28;20029;-72
2024/02/18 02:53:45;;;;;;;13.00;3.60;;;;;;;1.61;100.00;103133.13;5018565;28;20056;-73
2024/02/18 02:56:12;;;;;;;13.43;3.65;;;;;;;1.63;100.00;103149.69;5036373;28;20112;-74
2024/02/18 02:58:38;;;;;;;13.45;3.83;;;;;;;1.66;100.00;103152.00;5022013;28;20033;-72
2024/02/18 03:01:03;;;;;;;11.48;3.38;;;;;;;1.64;100.00;103148.69;5019198;28;20091;-74
2024/02/18 03:03:29;;;;;;;10.95;3.45;;;;;;;1.68;100.00;103139.47;5014416;28;20038;-73
2024/02/18 03:05:56;;;;;;;8.40;3.35;;;;;;;1.72;100.00;103129.44;5015860;28;20041;-73
2024/02/18 03:08:21;;;;;;;;;;;;;;;1.71;100.00;103122.50;5018859;28;20234;-73
2024/02/18 03:10:47;;;;;;;15.88;3.63;;;;;;;1.69;100.00;103109.44;5018223;28;20344;-73
2024/02/18 03:13:13;;;;;;;16.30;3.53;;;;;;;1.74;100.00;103107.16;5018807;28;20045;-73
2024/02/18 03:15:38;;;;;;;11.25;3.30;;;;;;;1.74;100.00;103093.97;4986446;28;20108;-72
2024/02/18 03:18:04;;;;;;;11.63;3.28;;;;;;;1.74;100.00;103104.53;5007902;28;20072;-74
2024/02/18 03:20:30;;;;;;;13.25;3.30;;;;;;;1.74;100.00;103111.63;5011898;28;20700;-72
2024/02/18 03:22:55;;;;;;;9.52;3.45;;;;;;;1.75;100.00;103108.81;5011621;28;20156;-72
2024/02/18 03:25:21;;;;;;;13.35;3.67;;;;;;;1.76;100.00;103097.28;4997427;28;20314;-73
2024/02/18 03:27:46;;;;;;;13.68;3.70;;;;;;;1.73;100.00;103087.03;5011418;28;20415;-72
2024/02/18 03:30:12;;;;;;;12.73;3.40;;;;;;;1.73;100.00;103089.66;5010883;28;20040;-73
2024/02/18 03:32:38;;;;;;;17.40;3.38;;;;;;;1.71;100.00;103086.34;4985424;28;20146;-73
2024/02/18 03:35:05;;;;;;;13.70;3.88;;;;;;;1.72;100.00;103072.16;5002080;28;20034;-73
2024/02/18 03:37:31;;;;;;;12.45;3.53;;;;;;;1.71;100.00;103062.56;5002943;28;20037;-73
2024/02/18 03:39:57;;;;;;;13.82;3.40;;;;;;;1.69;100.00;103064.53;5021366;28;20510;-73
2024/02/18 03:42:22;;;;;;;10.18;3.95;;;;;;;1.69;100.00;103071.63;5010397;28;20046;-72
2024/02/18 03:44:48;;;;;;;14.73;3.22;;;;;;;1.68;100.00;103060.22;5021248;28;20099;-72
2024/02/18 03:47:14;;;;;;;14.15;3.38;;;;;;;1.71;100.00;103082.88;4982017;28;20037;-73
2024/02/18 03:49:40;;;;;;;9.10;3.00;;;;;;;1.73;100.00;103073.81;5015523;28;20029;-73
2024/02/18 03:52:06;;;;;;;10.90;3.65;;;;;;;1.72;100.00;103072.16;5017089;28;20056;-72
2024/02/18 03:54:32;;;;;;;15.40;3.40;;;;;;;1.74;100.00;103070.19;5018153;28;20841;-72
2024/02/18 03:56:58;;;;;;;12.07;3.25;;;;;;;1.75;100.00;103061.25;5001875;28;20048;-72
2024/02/18 03:59:25;;;;;;;10.32;3.15;;;;;;;1.75;100.00;103053.34;5014631;28;20033;-72
2024/02/18 04:01:51;;;;;;;13.20;3.20;;;;;;;1.77;100.00;103054.03;5017272;28;20132;-72
2024/02/18 04:04:17;;;;;;;10.60;3.60;;;;;;;1.78;100.00;103053.03;5012489;28;20061;-72
2024/02/18 04:06:43;;;;;;;14.95;2.92;;;;;;;1.81;100.00;103050.09;5010319;28;20685;-72
2024/02/18 04:09:12;;;;;;;10.82;3.05;;;;;;;1.81;100.00;103050.09;4988900;28;20132;-73
2024/02/18 04:11:38;;;;;;;12.80;3.40;;;;;;;1.83;100.00;103042.84;5016353;28;20758;-72
2024/02/18 04:14:04;;;;;;;12.57;3.00;;;;;;;1.86;100.00;103042.53;5019436;28;20042;-72
2024/02/18 04:16:30;;;;;;;12.57;3.95;;;;;;;1.89;100.00;103039.56;4999841;28;20033;-71
2024/02/18 04:18:56;;;;;;;8.07;3.15;;;;;;;1.93;100.00;103045.38;5016381;28;20041;-72
2024/02/18 04:21:22;;;;;;;8.95;2.80;;;;;;;1.99;100.00;103043.94;5013308;28;20033;-72
2024/02/18 04:23:48;;;;;;;15.77;3.35;;;;;;;2.01;100.00;103040.13;5016183;28;20143;-72
2024/02/18 04:26:13;;;;;;;15.52;3.50;;;;;;;1.99;100.00;103030.72;5015182;28;20033;-73
2024/02/18 04:28:40;;;;;;;10.25;3.90;;;;;;;2.00;100.00;103027.91;5009878;28;20048;-73
2024/02/18 04:31:06;;;;;;;9.93;3.42;;;;;;;2.02;100.00;103025.09;5025000;28;20029;-73
2024/02/18 04:33:32;;;;;;;15.15;3.80;;;;;;;2.03;100.00;103024.09;5015445;28;20045;-73
2024/02/18 04:35:58;;;;;;;12.68;3.63;;;;;;;2.04;100.00;103018.69;5000499;28;20080;-73
2024/02/18 04:38:24;;;;;;;12.02;3.40;;;;;;;2.04;100.00;103018.69;5014862;28;20055;-73
2024/02/18 04:40:49;;;;;;;10.68;3.17;;;;;;;2.05;100.00;103015.06;5030797;28;20030;-73
2024/02/18 04:43:16;;;;;;;10.70;3.45;;;;;;;2.02;100.00;103003.94;5003179;28;20479;-73
2024/02/18 04:45:42;;;;;;;15.60;3.58;;;;;;;2.05;100.00;103011.59;5015294;28;20402;-73
2024/02/18 04:48:07;;;;;;;;;;;;;;;2.05;100.00;103008.94;5020901;28;20033;-73
2024/02/18 04:50:33;;;;;;;11.50;3.17;;;;;;;2.09;100.00;103007.63;5017439;28;20452;-73
2024/02/18 04:52:58;;;;;;;10.40;3.13;;;;;;;2.10;100.00;103006.63;5002843;28;20037;-73
2024/02/18 04:55:24;;;;;;;11.75;3.13;;;;;;;2.12;100.00;102989.66;5021375;28;20083;-73
2024/02/18 04:57:49;;;;;;;10.38;2.90;;;;;;;2.16;100.00;102985.69;5016944;28;20033;-73
2024/02/18 05:00:15;;;;;;;9.90;3.15;;;;;;;2.18;100.00;102980.25;5027772;28;20052;-73
2024/02/18 05:02:42;;;;;;;12.98;3.67;;;;;;;2.19;100.00;102985.38;4985430;28;20041;-73
2024/02/18 05:05:08;;;;;;;9.07;3.10;;;;;;;2.21;100.00;102990.50;5034624;28;20498;-73
2024/02/18 05:07:34;;;;;;;12.60;3.47;;;;;;;2.21;100.00;102979.09;5014444;28;20033;-73
2024/02/18 05:10:01;;;;;;;10.57;3.17;;;;;;;2.24;100.00;102982.28;5013964;28;20034;-73
2024/02/18 05:12:28;;;;;;;9.27;3.25;;;;;;;2.29;100.00;102981.78;5018366;28;20044;-73
2024/02/18 05:14:53;;;;;;;12.38;3.30;;;;;;;2.31;100.00;102972.72;5020387;28;20033;-73
2024/02/18 05:17:19;;;;;;;13.90;3.45;;;;;;;2.34;100.00;102976.84;5004385;28;20410;-74
2024/02/18 05:19:46;;;;;;;10.93;3.97;;;;;;;2.35;100.00;102981.97;5011368;28;20033;-73
2024/02/18 05:22:11;;;;;;;7.75;3.45;;;;;;;2.34;100.00;102966.25;5017718;28;20037;-73
2024/02/18 05:24:37;;;;;;;11.95;3.63;;;;;;;2.37;100.00;102971.22;5017806;28;20029;-73
2024/02/18 05:27:02;;;;;;;12.20;3.22;;;;;;;2.41;100.00;102973.38;5015130;28;20043;-73
2024/02/18 05:29:28;;;;;;;12.75;4.20;;;;;;;2.46;100.00;102970.28;5016817;28;20050;-74
2024/02/18 05:31:53;;;;;;;11.55;3.53;;;;;;;2.48;100.00;102960.34;5014414;28;20112;-73
2024/02/18 05:34:20;;;;;;;11.20;3.70;;;;;;;2.47;100.00;102953.41;5013460;28;20033;-73
2024/02/18 05:36:45;;;;;;;16.90;3.45;;;;;;;2.50;100.00;102953.06;5002736;28;21343;-73
2024/02/18 05:39:12;;;;;;;11.57;4.38;;;;;;;2.53;100.00;102946.66;5007120;28;20029;-73
2024/02/18 05:41:38;;;;;;;10.82;4.22;;;;;;;2.54;100.00;102943.81;5004361;28;20041;-73
2024/02/18 05:44:03;;;;;;;17.48;4.35;;;;;;;2.56;100.00;102944.50;5012080;28;20056;-73
2024/02/18 05:46:29;;;;;;;10.93;4.38;;;;;;;2.62;100.00;102943.00;5018243;28;20445;-73
2024/02/18 05:48:54;;;;;;;10.73;4.10;;;;;;;2.66;100.00;102934.59;5019565;28;20041;-73
2024/02/18 05:51:20;;;;;;;12.73;4.65;;;;;;;2.68;100.00;102931.78;5030861;28;20029;-73
2024/02/18 05:53:46;;;;;;;13.05;4.63;;;;;;;2.72;100.00;102927.81;5002189;28;20044;-72
2024/02/18 05:56:12;;;;;;;13.75;4.55;;;;;;;2.74;100.00;102925.84;5014745;28;20034;-73
2024/02/18 05:58:38;;;;;;;16.83;4.75;;;;;;;2.77;100.00;102917.56;5017276;28;20068;-74
2024/02/18 06:01:04;;;;;;;;;;;;;;;2.82;100.00;102911.78;5016664;28;20041;-73
2024/02/18 06:03:30;;;;;;;11.82;4.35;;;;;;;2.83;100.00;102911.59;5011814;28;19916;-72
2024/02/18 06:05:55;;;;;;;15.82;4.68;;;;;;;2.87;100.00;102910.31;5005341;28;20037;-73
2024/02/18 06:08:21;;;;;;;13.80;5.05;;;;;;;2.89;100.00;102907.47;5013430;28;20144;-73
2024/02/18 06:10:48;;;;;;;12.18;4.97;;;;;;;2.91;100.00;102900.19;5016732;28;20038;-74
2024/02/18 06:13:14;;;;;;;14.60;5.20;;;;;;;2.93;100.00;102899.06;5003077;28;20163;-72
2024/02/18 06:15:39;;;;;;;16.83;5.53;;;;;;;2.94;100.00;102884.81;5015058;28;20606;-73
2024/02/18 06:18:05;;;;;;;16.52;6.15;;;;;;;2.98;100.00;102885.28;5014237;28;20056;-73
2024/02/18 06:20:31;;;;;;;15.85;6.10;;;;;;;3.02;100.00;102881.34;5014508;28;20034;-72
2024/02/18 06:22:56;;;;;;;18.95;6.43;;;;;;;3.06;100.00;102871.25;5018665;28;20044;-72
2024/02/18 06:25:23;;;;;;;17.98;6.95;;;;;;;3.08;100.00;102870.09;4984502;28;20924;-72
2024/02/18 06:27:52;;;;;;;26.92;7.47;;;;;;;3.11;100.00;102858.31;4983354;28;20045;-72
2024/02/18 06:30:18;;;;;;;21.58;6.88;;;;;;;3.13;100.00;102857.16;5018188;28;20044;-73
2024/02/18 06:32:44;;;;;;;24.85;7.57;;;;;;;3.18;100.00;102860.13;5015352;28;20391;-73
2024/02/18 06:35:10;;;;;;;27.55;8.02;;;;;;;3.19;100.00;102845.91;5023156;28;20033;-74
2024/02/18 06:37:35;;;;;;;21.77;7.90;;;;;;;3.22;100.00;102847.38;5016628;28;20053;-73
2024/02/18 06:40:01;;;;;;;22.92;7.75;;;;;;;3.24;100.00;102855.97;5025683;28;20025;-73
2024/02/18 06:42:27;;;;;;;20.50;6.97;;;;;;;3.25;100.00;102850.53;5019080;28;20060;-73
2024/02/18 06:44:53;;;;;;;19.85;7.38;;;;;;;3.28;100.00;102841.41;5022721;28;20466;-72
2024/02/18 06:47:18;;;;;;;23.35;7.03;;;;;;;3.32;100.00;102837.44;5014454;28;20044;-72
2024/02/18 06:49:44;;;;;;;22.70;8.40;;;;;;;3.35;100.00;102831.78;5016627;28;20038;-72
2024/02/18 06:52:10;;;;;;;20.50;7.20;;;;;;;3.37;100.00;102832.44;5022395;28;20184;-73
2024/02/18 06:54:36;;;;;;;24.95;8.23;;;;;;;3.40;100.00;102824.16;5030150;28;20068;-74
2024/02/18 06:57:02;;;;;;;25.42;7.60;;;;;;;3.45;100.00;102820.97;5018793;28;20109;-72
2024/02/18 06:59:28;;;;;;;;;;;;;;;3.47;100.00;102819.84;4999960;28;20031;-72
2024/02/18 07:01:53;;;;;;;19.77;7.30;;;;;;;3.50;100.00;102816.81;5033196;28;19967;-74
2024/02/18 07:04:19;;;;;;;19.33;7.57;;;;;;;3.53;100.00;102811.19;5023552;28;20405;-73
2024/02/18 07:06:45;;;;;;;18.85;7.72;;;;;;;3.58;100.00;102809.84;5023764;28;20033;-73
2024/02/18 07:09:11;;;;;;;21.67;7.97;;;;;;;3.59;100.00;102811.47;5011769;28;20030;-74
2024/02/18 07:11:36;;;;;;;17.75;7.63;;;;;;;3.61;100.00;102806.84;5016344;28;20532;-73
2024/02/18 07:14:02;;;;;;;18.65;8.10;;;;;;;3.63;100.00;102794.25;5017451;28;20041;-73
2024/02/18 07:16:27;;;;;;;22.58;7.78;;;;;;;3.68;100.00;102794.56;5017713;28;20034;-72
2024/02/18 07:18:53;;;;;;;22.08;7.60;;;;;;;3.71;100.00;102788.91;5017616;28;20052;-72
2024/02/18 07:21:18;;;;;;;20.83;7.60;;;;;;;3.74;100.00;102785.94;4998690;28;20080;-72
2024/02/18 07:23:44;;;;;;;23.00;8.80;;;;;;;3.77;100.00;102785.56;4985047;28;20413;-73
2024/02/18 07:26:11;;;;;;;19.35;7.63;;;;;;;3.81;100.00;102787.69;5022836;28;20422;-72
2024/02/18 07:28:37;;;;;;;;;;;;;;;3.86;100.00;102795.09;5020829;28;20037;-72
2024/02/18 07:31:03;;;;;;;22.00;8.50;;;;;;;3.89;100.00;102784.19;5036634;28;20298;-72
2024/02/18 07:33:28;;;;;;;18.25;8.57;;;;;;;3.93;100.00;102784.63;5000308;28;20045;-71
2024/02/18 07:35:54;;;;;;;20.65;8.45;;;;;;;3.97;100.00;102776.16;5020188;28;20126;-72
2024/02/18 07:38:20;;;;;;;19.75;8.93;;;;;;;4.00;100.00;102781.13;4997990;28;20491;-73
2024/02/18 07:40:46;;;;;;;22.63;8.88;;;;;;;4.03;100.00;102775.47;5013676;28;20036;-73
2024/02/18 07:43:12;;;;;;;20.73;8.27;;;;;;;4.08;100.00;102767.81;5017287;28;20033;-73
2024/02/18 07:45:39;;;;;;;19.55;8.90;;;;;;;4.14;100.00;102762.81;5023212;28;20037;-72
2024/02/18 07:48:05;;;;;;;19.00;8.57;;;;;;;4.17;100.00;102775.69;5023040;28;20083;-71
2024/02/18 07:50:30;;;;;;;21.05;8.95;;;;;;;4.20;100.00;102768.22;5017727;28;20045;-72
2024/02/18 07:52:56;;;;;;;19.67;9.07;;;;;;;4.22;100.00;102768.03;5001553;28;20036;-73
2024/02/18 07:55:22;;;;;;;19.85;8.40;;;;;;;4.25;100.00;102755.22;5005803;28;20505;-73
2024/02/18 07:57:48;;;;;;;20.40;9.07;;;;;;;4.30;100.00;102752.06;5015745;28;20025;-74
2024/02/18 08:00:16;;;;;;;21.08;8.68;;;;;;;4.32;100.00;102758.00;5019248;28;20052;-72
2024/02/18 08:02:42;;;;;;;22.27;10.18;;;;;;;4.35;100.00;102755.84;5017072;28;20029;-72
2024/02/18 08:05:08;;;;;;;22.05;9.18;;;;;;;4.37;100.00;102750.34;5004359;28;20461;-72
2024/02/18 08:07:35;;;;;;;20.90;8.82;;;;;;;4.39;100.00;102745.66;5017995;28;20039;-72
2024/02/18 08:10:01;;;;;;;19.48;9.18;;;;;;;4.44;100.00;102743.31;5015958;28;20068;-72
2024/02/18 08:12:27;;;;;;;;;;;;;;;4.46;100.00;102743.94;5019263;28;20022;-72
2024/02/18 08:14:52;;;;;;;21.52;8.93;;;;;;;4.49;100.00;102743.59;5022372;28;19920;-73
2024/02/18 08:17:18;;;;;;;24.15;10.38;;;;;;;4.53;100.00;102742.22;5000861;28;20041;-72
2024/02/18 08:19:44;;;;;;;25.10;9.68;;;;;;;4.57;100.00;102738.22;5016874;28;20052;-74
2024/02/18 08:22:09;;;;;;;21.48;9.68;;;;;;;4.61;100.00;102731.53;5014170;28;20029;-74
2024/02/18 08:24:35;;;;;;;21.08;9.30;;;;;;;4.64;100.00;102741.78;5028226;28;20368;-72
2024/02/18 08:27:00;;;;;;;23.88;10.32;;;;;;;4.71;100.00;102735.75;5014914;28;20092;-73
2024/02/18 08:29:27;;;;;;;25.02;11.15;;;;;;;4.75;100.00;102726.44;5015808;28;20034;-73
2024/02/18 08:31:53;;;;;;;23.55;10.43;;;;;;;4.78;100.00;102723.41;5026259;28;20091;-72
2024/02/18 08:34:20;;;;;;;;;;;;;;;4.82;100.00;102716.72;4998142;28;20041;-72
2024/02/18 08:36:46;;;;;;;25.33;10.18;;;;;;;4.86;100.00;102707.38;5016005;28;19955;-72
2024/02/18 08:39:12;;;;;;;25.05;10.48;;;;;;;4.91;100.00;102710.31;5017220;28;20067;-74
2024/02/18 08:41:38;;;;;;;25.80;12.40;;;;;;;4.97;100.00;102706.09;5028734;28;20037;-73
2024/02/18 08:44:04;;;;;;;31.77;11.27;;;;;;;5.01;100.00;102704.72;5016470;28;20786;-72
2024/02/18 08:46:30;;;;;;;23.10;10.85;;;;;;;5.06;100.00;102703.16;5012195;28;20041;-72
2024/02/18 08:48:55;;;;;;;27.02;12.55;;;;;;;5.10;100.00;102699.13;4999247;28;20037;-74
2024/02/18 08:51:21;;;;;;;26.92;11.55;;;;;;;5.15;100.00;102699.41;5022600;28;20513;-73
2024/02/18 08:53:47;;;;;;;29.65;12.10;;;;;;;5.19;100.00;102691.88;5014950;28;20499;-71
2024/02/18 08:56:13;;;;;;;29.77;11.50;;;;;;;5.24;100.00;102694.81;5013280;28;20116;-72
2024/02/18 08:58:40;;;;;;;25.60;11.65;;;;;;;5.30;100.00;102687.94;5018439;28;20433;-72
2024/02/18 09:01:06;;;;;;;30.13;13.02;;;;;;;5.33;100.00;102688.34;5020106;28;20065;-74
2024/02/18 09:03:32;;;;;;;29.55;13.13;;;;;;;5.38;100.00;102685.16;5020607;28;20266;-73
2024/02/18 09:05:58;;;;;;;31.15;12.57;;;;;;;5.42;100.00;102673.97;5023287;28;20131;-72
2024/02/18 09:08:24;;;;;;;32.17;12.73;;;;;;;5.48;100.00;102672.38;5017037;28;21010;-74
2024/02/18 09:10:53;;;;;;;31.88;13.32;;;;;;;5.53;100.00;102669.97;5013973;28;20096;-70
2024/02/18 09:13:22;;;;;;;28.67;12.85;;;;;;;5.56;100.00;102666.13;4998468;28;20065;-73
2024/02/18 09:15:48;;;;;;;32.80;14.48;;;;;;;5.60;100.00;102662.88;5014699;28;20037;-74
2024/02/18 09:18:14;;;;;;;29.67;13.70;;;;;;;5.65;100.00;102663.16;5019850;28;20372;-74
2024/02/18 09:20:41;;;;;;;31.17;13.20;;;;;;;5.68;100.00;102657.44;5015023;28;20038;-73
2024/02/18 09:23:06;;;;;;;30.25;14.57;;;;;;;5.71;100.00;102658.91;5031760;28;20037;-73
2024/02/18 09:25:32;;;;;;;31.80;13.48;;;;;;;5.77;100.00;102652.03;5013948;28;20046;-72
2024/02/18 09:27:57;;;;;;;29.85;14.05;;;;;;;5.81;100.00;102654.09;5002289;28;20048;-73
2024/02/18 09:30:23;;;;;;;30.73;13.25;;;;;;;5.84;100.00;102653.72;5015675;28;20030;-73
2024/02/18 09:32:51;;;;;;;28.50;13.77;;;;;;;5.90;100.00;102646.81;4996908;28;20058;-74
2024/02/18 09:35:17;;;;;;;28.08;13.60;;;;;;;5.93;100.00;102646.44;5013144;28;20153;-72
2024/02/18 09:37:43;;;;;;;33.22;14.25;;;;;;;5.99;100.00;102645.69;5013319;28;20542;-72
2024/02/18 09:40:09;;;;;;;34.65;14.52;;;;;;;6.04;100.00;102639.81;5018121;28;20922;-72
2024/02/18 09:42:42;;;;;;;30.90;13.25;;;;;;;6.11;100.00;102648.66;5017420;28;20568;-72
2024/02/18 09:45:13;;;;;;;27.50;13.82;;;;;;;6.15;100.00;102645.38;5014169;28;20038;-72
2024/02/18 09:47:40;;;;;;;29.05;13.90;;;;;;;6.21;100.00;102649.94;5014075;28;20033;-74
2024/02/18 09:50:09;;;;;;;;;;;;;;;6.29;100.00;102644.47;5013617;28;20026;-72
2024/02/18 09:52:39;;;;;;;29.98;13.77;;;;;;;6.36;100.00;102641.03;5015921;28;20387;-72
2024/02/18 09:55:07;;;;;;;31.10;13.93;;;;;;;6.41;100.00;102641.28;5013316;28;20069;-73
2024/02/18 09:57:33;;;;;;;31.83;14.32;;;;;;;6.47;100.00;102638.66;5036686;28;20042;-72
2024/02/18 09:59:58;;;;;;;28.95;13.75;;;;;;;6.53;100.00;102637.88;5016400;28;20115;-73
2024/02/18 10:02:26;;;;;;;28.55;14.10;;;;;;;6.59;100.00;102636.28;5015123;28;20072;-73
2024/02/18 10:04:52;;;;;;;26.15;12.60;;;;;;;6.66;100.00;102623.81;5013657;28;20045;-73
2024/02/18 10:07:17;;;;;;;27.88;12.77;;;;;;;6.71;100.00;102624.06;5020673;28;20033;-73
2024/02/18 10:09:43;;;;;;;27.05;13.15;;;;;;;6.76;100.00;102616.25;5019939;28;20456;-73
2024/02/18 10:12:12;;;;;;;29.05;13.63;;;;;;;6.83;100.00;102611.78;4991611;28;20095;-72
2024/02/18 10:14:38;;;;;;;28.50;12.80;;;;;;;6.88;100.00;102613.03;5011988;28;20042;-75
2024/02/18 10:17:04;;;;;;;28.02;12.93;;;;;;;6.90;100.00;102611.81;4996135;28;20060;-74
2024/02/18 10:19:30;;;;;;;26.05;12.32;;;;;;;6.97;100.00;102595.84;5014007;28;20057;-75
2024/02/18 10:22:00;;;;;;;29.52;13.27;;;;;;;7.01;100.00;102597.13;5008061;28;20113;-73
2024/02/18 10:24:27;;;;;;;26.15;12.77;;;;;;;7.03;100.00;102590.53;5001122;28;20034;-73
2024/02/18 10:26:58;;;;;;;25.17;12.18;;;;;;;7.05;100.00;102585.03;5017513;28;20025;-73
2024/02/18 10:29:24;;;;;;;25.50;12.13;;;;;;;7.08;100.00;102579.31;5012263;28;20133;-74
2024/02/18 10:31:50;;;;;;;27.08;12.52;;;;;;;7.11;100.00;102573.56;5014644;28;20033;-73
2024/02/18 10:34:17;;;;;;;27.38;11.68;;;;;;;7.13;100.00;102563.53;5014192;28;20517;-74
2024/02/18 10:36:46;;;;;;;22.38;10.80;;;;;;;7.20;100.00;102569.69;5020765;28;20034;-74
2024/02/18 10:39:15;;;;;;;22.83;10.88;;;;;;;7.23;100.00;102553.28;5011925;28;20034;-73
2024/02/18 10:41:48;;;;;;;19.77;9.70;;;;;;;7.28;100.00;102553.50;5017486;28;20029;-73
2024/02/18 10:44:16;;;;;;;24.92;10.57;;;;;;;7.33;100.00;102544.91;5016126;28;20064;-73
2024/02/18 10:46:45;;;;;;;18.50;9.38;;;;;;;7.34;100.00;102538.56;5014458;28;20029;-73
2024/02/18 10:49:18;;;;;;;20.77;9.73;;;;;;;7.40;100.00;102535.06;5033612;28;20398;-73
2024/02/18 10:51:47;;;;;;;17.70;8.85;;;;;;;7.42;100.00;102530.34;5015164;28;20515;-72
2024/02/18 10:54:22;;;;;;;15.95;8.50;;;;;;;7.46;100.00;102526.25;5017975;28;20033;-74
2024/02/18 10:56:49;;;;;;;16.38;8.32;;;;;;;7.50;100.00;102529.31;5015854;28;20033;-74
2024/02/18 10:59:17;;;;;;;;;;;;;;;7.53;100.00;102516.41;5031617;28;20025;-74
2024/02/18 11:01:53;;;;;;;14.85;7.82;;;;;;;7.56;100.00;102521.31;5033302;28;19913;-73
2024/02/18 11:04:19;;;;;;;14.23;7.97;;;;;;;7.59;100.00;102520.94;5017979;28;20799;-73
2024/02/18 11:06:46;;;;;;;;;;;;;;;7.63;100.00;102510.66;5021437;28;20499;-72
2024/02/18 11:09:12;;;;;;;13.32;7.05;;;;;;;7.66;100.00;102510.25;5020105;28;20449;-73
2024/02/18 11:11:41;;;;;;;14.77;7.63;;;;;;;7.66;100.00;102503.06;5018755;28;20120;-73
2024/02/18 11:14:09;;;;;;;15.57;7.97;;;;;;;7.72;100.00;102501.41;5013479;28;20064;-73